Lismore, New South Wales

2:18 PM AEST on July 27, 2016 (GMT +1000)
Lismore | | Change Station

Elev 564 ft 28.81 °S, 153.35 °E | Updated 59 seconds ago

Clear
Clear
62.8 °F
Feels Like 62.8 °F
N
2.9
Wind Variable Wind from NW
Gusts 13.0 mph

Today
High -- | Low -- °F
--% Chance of Precip.
Yesterday
High -- | Low -- °F
Precip. -- in
Pressure 29.98 in
Visibility 6.2 miles
Clouds
Dew Point 43 °F
Humidity 48%
Rainfall 0.00 in
Snow Depth Not available.
6:33 AM 5:13 PM
Waning Gibbous, 47% visible
METAR YLIS 270400Z AUTO 32009KT 9999 // NCD 18/05 Q1015
Pressure 29.98 in
Visibility 6.2 miles
Clouds
Dew Point 43 °F
Humidity 48%
Rainfall 0.00 in
Snow Depth Not available.
6:33 AM 5:13 PM
Waning Gibbous, 47% visible
METAR YLIS 270400Z AUTO 32009KT 9999 // NCD 18/05 Q1015

10-Day Weather Forecast

Almanac

Astronomy

Jul. 27, 2016 Rise Set
Actual Time
Civil Twilight
Nautical Twilight
Astronomical Twilight
Moon
Length of Visible Light
Length of Day
Tomorrow will be .
, % of the Moon is Illuminated

Today's Extremes

Country Highs Country Lows

Community

WunderPhotos

Upload Photos

1,927,813 photos uploaded!

WunderBlog® & News

Nearby

Air Quality

  Air Quality AQ Index Pollutant
Not available.

Snow Depth

Station Depth Elevation

Earthquake Activity

City Distance Mag. Time & Date
Minimum magnitude displayed is 2.5.

Coastal Water Temperatures

Place Temperature

Stations

Nearby Weather Stations

Station Location Temp. Windchill Dew Point Humidity Wind Precip. Elev Updated Type